createdAt,value
2023-04-16T00:03:16.532Z,27.80
2023-04-16T00:13:19.991Z,30.10
2023-04-16T00:23:25.153Z,31.20
2023-04-16T00:33:30.319Z,31.00
2023-04-16T00:43:33.348Z,30.90
2023-04-16T00:53:36.674Z,34.70
2023-04-16T01:03:45.835Z,34.80
2023-04-16T01:13:49.260Z,30.60
2023-04-16T01:23:53.069Z,29.10
2023-04-16T01:33:56.201Z,33.00
2023-04-16T01:43:59.874Z,33.00
2023-04-16T01:54:03.146Z,36.90
2023-04-16T02:04:07.560Z,34.40
2023-04-16T02:14:10.795Z,41.70
2023-04-16T02:24:14.124Z,34.20
2023-04-16T02:34:18.284Z,36.20
2023-04-16T02:44:21.555Z,40.10
2023-04-16T02:54:24.680Z,43.00
2023-04-16T03:04:27.861Z,48.50
2023-04-16T03:14:31.405Z,38.90
2023-04-16T03:24:34.491Z,31.10
2023-04-16T03:34:37.592Z,32.30
2023-04-16T03:44:41.045Z,31.80
2023-04-16T03:54:45.469Z,35.30
2023-04-16T04:04:57.989Z,33.40
2023-04-16T04:15:01.110Z,32.30
2023-04-16T04:25:04.449Z,39.50
2023-04-16T04:35:09.110Z,34.20
2023-04-16T04:45:12.590Z,36.20
2023-04-16T04:55:17.036Z,33.80
2023-04-16T05:05:20.530Z,33.30
2023-04-16T05:15:23.689Z,27.20
2023-04-16T05:25:26.803Z,28.90
2023-04-16T05:35:29.878Z,22.10
2023-04-16T05:45:33.586Z,21.20
2023-04-16T05:55:39.190Z,15.50
2023-04-16T06:05:42.510Z,7.50
2023-04-16T06:15:45.758Z,6.10
2023-04-16T06:25:59.617Z,8.40
2023-04-16T06:36:04.748Z,5.10
2023-04-16T06:46:08.034Z,5.70
2023-04-16T06:56:11.557Z,7.50
2023-04-16T07:06:14.762Z,4.00
2023-04-16T07:16:20.808Z,2.90
2023-04-16T07:26:24.479Z,3.20
2023-04-16T07:36:28.593Z,2.60
2023-04-16T07:46:43.621Z,4.20
2023-04-16T07:56:51.542Z,4.30
2023-04-16T08:06:56.699Z,2.70
2023-04-16T08:17:02.736Z,2.20
2023-04-16T08:38:32.413Z,2.20
2023-04-16T08:48:37.330Z,1.70
2023-04-16T08:58:40.508Z,1.80
2023-04-16T09:08:46.693Z,1.90
2023-04-16T09:18:49.819Z,1.60
2023-04-16T09:28:52.888Z,2.60
2023-04-16T09:38:57.781Z,2.50
2023-04-16T09:49:18.800Z,3.10
2023-04-16T09:59:23.896Z,3.60
2023-04-16T10:09:32.429Z,2.70
2023-04-16T10:19:36.263Z,2.30
2023-04-16T10:29:39.633Z,2.00
2023-04-16T10:39:42.735Z,2.30
2023-04-16T10:49:48.318Z,2.00
2023-04-16T10:59:51.505Z,2.80
2023-04-16T11:09:54.611Z,2.00
2023-04-16T11:19:57.856Z,1.70
2023-04-16T11:30:06.126Z,2.20
2023-04-16T11:40:09.793Z,2.40
2023-04-16T11:50:20.483Z,2.20
2023-04-16T12:00:24.993Z,2.30
2023-04-16T12:10:28.679Z,1.60
2023-04-16T12:20:40.488Z,1.50
2023-04-16T12:41:19.027Z,1.70
2023-04-16T12:51:22.186Z,1.60
2023-04-16T13:01:25.665Z,1.50
2023-04-16T13:11:28.954Z,2.60
2023-04-16T13:21:32.412Z,2.20
2023-04-16T13:31:35.709Z,2.20
2023-04-16T13:41:39.245Z,1.90
2023-04-16T13:51:45.442Z,2.20
2023-04-16T14:01:48.517Z,4.00
2023-04-16T14:11:51.796Z,2.00
2023-04-16T14:21:54.933Z,2.60
2023-04-16T14:31:57.954Z,1.80
2023-04-16T14:42:01.053Z,4.70
2023-04-16T14:52:05.816Z,2.20
2023-04-16T15:02:10.101Z,4.90
2023-04-16T15:12:13.245Z,2.60
2023-04-16T15:22:16.969Z,4.50
2023-04-16T15:32:20.072Z,2.30
2023-04-16T15:42:24.459Z,4.20
2023-04-16T15:52:27.989Z,8.20
2023-04-16T16:02:31.604Z,5.20
2023-04-16T16:12:35.848Z,13.40
2023-04-16T16:22:39.358Z,5.20
2023-04-16T16:32:44.133Z,7.70
2023-04-16T16:43:19.261Z,4.00
2023-04-16T16:53:23.744Z,5.40
2023-04-16T17:03:26.868Z,3.80
2023-04-16T17:13:32.830Z,5.50
2023-04-16T17:23:35.997Z,6.40
2023-04-16T17:33:39.137Z,6.60
2023-04-16T17:43:43.219Z,9.70
2023-04-16T17:53:46.401Z,6.90
2023-04-16T18:03:49.804Z,6.80
2023-04-16T18:13:54.105Z,11.20
2023-04-16T18:23:57.917Z,14.30
2023-04-16T18:34:01.005Z,11.80
2023-04-16T18:44:04.201Z,12.30
2023-04-16T18:54:07.352Z,19.20
2023-04-16T19:04:10.713Z,21.50
2023-04-16T19:14:14.085Z,14.30
2023-04-16T19:24:17.169Z,29.60
2023-04-16T19:34:20.833Z,34.20
2023-04-16T19:44:23.916Z,32.00
2023-04-16T19:54:27.493Z,18.90
2023-04-16T20:04:30.614Z,30.10
2023-04-16T20:14:33.772Z,20.60
2023-04-16T20:24:38.648Z,19.80
2023-04-16T20:35:14.495Z,17.00
2023-04-16T20:45:18.941Z,22.60
2023-04-16T20:55:22.143Z,28.40
2023-04-16T21:05:26.673Z,31.90
2023-04-16T21:15:31.037Z,32.20
2023-04-16T21:25:34.905Z,28.60
2023-04-16T21:35:38.863Z,27.70
2023-04-16T21:45:42.824Z,28.40
2023-04-16T21:55:45.936Z,17.30
2023-04-16T22:05:49.280Z,24.00
2023-04-16T22:15:53.187Z,19.30
2023-04-16T22:25:56.726Z,19.70
2023-04-16T22:36:00.243Z,20.90
2023-04-16T22:46:06.764Z,19.40
2023-04-16T22:56:09.877Z,20.50
2023-04-16T23:06:12.916Z,16.40
2023-04-16T23:16:16.146Z,17.30
2023-04-16T23:26:22.740Z,17.30
2023-04-16T23:36:27.084Z,19.30
2023-04-16T23:46:30.221Z,16.00
2023-04-16T23:56:33.364Z,17.40
